createdAt,value
2022-12-03T00:00:29.896Z,74.3
2022-12-03T00:01:46.912Z,74.2
2022-12-03T00:03:04.048Z,74.2
2022-12-03T00:04:21.412Z,74.4
2022-12-03T00:05:41.784Z,74.7
2022-12-03T00:06:55.887Z,74.6
2022-12-03T00:08:12.936Z,74.4
2022-12-03T00:09:29.893Z,73.8
2022-12-03T00:10:46.914Z,73.8
2022-12-03T00:12:04.357Z,74.3
2022-12-03T00:13:20.866Z,74.5
2022-12-03T00:14:43.003Z,74.4
2022-12-03T00:15:55.111Z,74.5
2022-12-03T00:17:11.957Z,74.6
2022-12-03T00:18:28.868Z,74.8
2022-12-03T00:19:45.866Z,75
2022-12-03T00:21:02.927Z,75.4
2022-12-03T00:22:19.927Z,75.3
2022-12-03T00:23:41.898Z,74.9
2022-12-03T00:24:55.069Z,74.4
2022-12-03T00:26:11.908Z,74
2022-12-03T00:27:28.891Z,74.2
2022-12-03T00:28:45.887Z,74.1
2022-12-03T00:30:03.040Z,74.2
2022-12-03T00:31:19.927Z,74.2
2022-12-03T00:32:36.915Z,74.2
2022-12-03T00:33:53.889Z,74.1
2022-12-03T00:35:10.940Z,74.5
2022-12-03T00:36:27.883Z,74.4
2022-12-03T00:37:44.915Z,74.4
2022-12-03T00:39:01.958Z,74.7
2022-12-03T00:40:18.931Z,75
2022-12-03T00:41:35.906Z,75.6
2022-12-03T00:42:52.869Z,76
2022-12-03T00:44:09.930Z,76.7
2022-12-03T00:45:26.919Z,77.1
2022-12-03T00:46:44.040Z,77.4
2022-12-03T00:48:00.952Z,77.3
2022-12-03T00:49:17.946Z,76.5
2022-12-03T00:50:34.935Z,75.7
2022-12-03T00:51:51.927Z,75.6
2022-12-03T00:53:08.899Z,75.2
2022-12-03T00:54:31.495Z,75.3
2022-12-03T00:55:43.032Z,75.3
2022-12-03T00:56:59.987Z,75.7
2022-12-03T00:58:16.938Z,76.1
2022-12-03T00:59:33.917Z,76.4
2022-12-03T01:00:51.174Z,76.8
2022-12-03T01:02:08.044Z,77
2022-12-03T01:03:24.939Z,77.1
2022-12-03T01:04:42.032Z,76.9
2022-12-03T01:05:58.919Z,76.6
2022-12-03T01:07:15.912Z,76
2022-12-03T01:08:32.973Z,75.7
2022-12-03T01:09:50.019Z,75.7
2022-12-03T01:11:06.926Z,76
2022-12-03T01:12:23.935Z,75.8
2022-12-03T01:13:41.090Z,75.8
2022-12-03T01:14:58.106Z,75.7
2022-12-03T01:16:15.288Z,75.7
2022-12-03T01:17:31.962Z,75.6
2022-12-03T01:18:49.164Z,75.2
2022-12-03T01:20:06.040Z,75
2022-12-03T01:21:23.007Z,74.9
2022-12-03T01:22:39.935Z,75.1
2022-12-03T01:23:56.942Z,74.9
2022-12-03T01:25:14.092Z,74.9
2022-12-03T01:26:30.950Z,74.7
2022-12-03T01:27:47.984Z,74.3
2022-12-03T01:29:04.979Z,73.8
2022-12-03T01:30:21.994Z,73.4
2022-12-03T01:31:39.071Z,73.2
2022-12-03T01:32:55.953Z,73.2
2022-12-03T01:34:13.007Z,73.1
2022-12-03T01:35:29.977Z,73
2022-12-03T01:36:46.959Z,73.4
2022-12-03T01:38:03.973Z,73.5
2022-12-03T01:39:22.063Z,73.7
2022-12-03T01:40:39.080Z,74
2022-12-03T01:41:55.965Z,74.1
2022-12-03T01:43:12.971Z,74.1
2022-12-03T01:44:29.992Z,73.7
2022-12-03T01:45:47.043Z,73.5
2022-12-03T01:47:04.447Z,73.2
2022-12-03T01:48:21.101Z,73.3
2022-12-03T01:49:38.121Z,73.2
2022-12-03T01:50:54.995Z,73.2
2022-12-03T01:52:11.980Z,73.1
2022-12-03T01:53:28.982Z,72.9
2022-12-03T01:54:46.003Z,72.9
2022-12-03T01:56:03.039Z,72.5
2022-12-03T01:57:19.995Z,71.7
2022-12-03T01:58:37.066Z,71.3
2022-12-03T01:59:53.986Z,71.2
2022-12-03T02:01:11.152Z,71.2
2022-12-03T02:02:28.007Z,71.4
2022-12-03T02:03:45.055Z,71.6
2022-12-03T02:05:02.100Z,71.8
2022-12-03T02:06:19.082Z,72.2
2022-12-03T02:07:36.154Z,72.2
2022-12-03T02:08:53.007Z,72.4
2022-12-03T02:10:10.070Z,72.7
2022-12-03T02:11:27.078Z,72.9
2022-12-03T02:12:44.044Z,73.4
2022-12-03T02:14:01.011Z,73.7
2022-12-03T02:15:18.042Z,74
2022-12-03T02:16:35.107Z,74.2
2022-12-03T02:17:52.037Z,74.4
2022-12-03T02:19:09.005Z,74.5
2022-12-03T02:20:26.043Z,74.6
2022-12-03T02:21:43.103Z,74.5
2022-12-03T02:23:00.023Z,74
2022-12-03T02:24:17.090Z,74.4
2022-12-03T02:25:34.012Z,74.8
2022-12-03T02:26:51.066Z,74.9
2022-12-03T02:28:08.098Z,75.2
2022-12-03T02:29:25.103Z,75.3
2022-12-03T02:30:42.340Z,75.3
2022-12-03T02:31:59.428Z,75.7
2022-12-03T02:33:16.055Z,75.8
2022-12-03T02:34:33.039Z,75.6
2022-12-03T02:35:50.097Z,75.3
2022-12-03T02:37:07.033Z,75
2022-12-03T02:38:24.085Z,74.7
2022-12-03T02:39:41.068Z,74.6
2022-12-03T02:40:58.076Z,74.5
2022-12-03T02:42:15.067Z,74.4
2022-12-03T02:43:32.058Z,74
2022-12-03T02:44:49.059Z,73.5
2022-12-03T02:46:06.092Z,73.5
2022-12-03T02:47:23.139Z,73.6
2022-12-03T02:48:40.359Z,73.7
2022-12-03T02:49:57.055Z,73.8
2022-12-03T02:51:14.086Z,73.6
2022-12-03T02:52:31.120Z,73.3
2022-12-03T02:53:48.056Z,73.2
2022-12-03T02:55:05.112Z,73.5
2022-12-03T02:56:22.249Z,73.5
2022-12-03T02:57:39.086Z,73.4
2022-12-03T02:58:56.067Z,73
2022-12-03T03:00:13.118Z,72.7
2022-12-03T03:01:30.232Z,72.8
2022-12-03T03:02:47.125Z,72.9
2022-12-03T03:04:04.055Z,73.1
2022-12-03T03:05:21.101Z,73
2022-12-03T03:06:38.092Z,73.1
2022-12-03T03:07:55.119Z,73.3
2022-12-03T03:09:12.047Z,73.3
2022-12-03T03:10:29.133Z,73.3
2022-12-03T03:11:47.169Z,73.6
2022-12-03T03:13:04.475Z,74
2022-12-03T03:14:21.119Z,73.9
2022-12-03T03:15:38.126Z,73.6
2022-12-03T03:16:55.144Z,73.8
2022-12-03T03:18:12.114Z,74.4
2022-12-03T03:19:29.091Z,74.5
2022-12-03T03:20:46.212Z,74.6
2022-12-03T03:22:03.134Z,74.7
2022-12-03T03:23:20.122Z,75
2022-12-03T03:24:37.099Z,75.5
2022-12-03T03:25:54.226Z,75.7
2022-12-03T03:27:11.158Z,75.5
2022-12-03T03:28:28.101Z,75.3
2022-12-03T03:29:45.099Z,74.7
2022-12-03T03:31:02.227Z,74.1
2022-12-03T03:32:19.124Z,73.5
2022-12-03T03:33:36.134Z,73.1
2022-12-03T03:34:53.454Z,73.3
2022-12-03T03:36:10.113Z,73.7
2022-12-03T03:37:27.259Z,73.7
2022-12-03T03:38:44.124Z,73.6
2022-12-03T03:40:01.130Z,73.6
2022-12-03T03:41:18.341Z,73.9
2022-12-03T03:42:35.566Z,73.7
2022-12-03T03:43:52.095Z,74
2022-12-03T03:45:09.120Z,74.3
2022-12-03T03:46:26.200Z,74.6
2022-12-03T03:47:43.168Z,74.5
2022-12-03T03:49:00.122Z,74.5
2022-12-03T03:50:17.201Z,74.2
2022-12-03T03:51:34.136Z,74.1
2022-12-03T03:52:51.226Z,74
2022-12-03T03:54:08.147Z,73.8
2022-12-03T03:55:25.146Z,73.9
2022-12-03T03:56:42.151Z,74
2022-12-03T03:57:59.164Z,74.1
2022-12-03T03:59:16.127Z,74
2022-12-03T04:00:33.148Z,73.9
2022-12-03T04:01:50.143Z,73.7
2022-12-03T04:03:07.245Z,73.9
2022-12-03T04:04:24.231Z,74
2022-12-03T04:05:41.256Z,73.9
2022-12-03T04:06:58.146Z,74.3
2022-12-03T04:08:15.262Z,74.7
2022-12-03T04:09:32.213Z,75.1
2022-12-03T04:10:49.218Z,75.4
2022-12-03T04:12:06.168Z,75.6
2022-12-03T04:13:23.562Z,75.7
2022-12-03T04:14:41.217Z,75.7
2022-12-03T04:15:58.193Z,75.3
2022-12-03T04:17:15.144Z,74.9
2022-12-03T04:18:32.183Z,74.7
2022-12-03T04:19:49.171Z,74.3
2022-12-03T04:21:06.195Z,74
2022-12-03T04:22:23.172Z,73.8
2022-12-03T04:23:40.218Z,74.1
2022-12-03T04:24:57.173Z,73.8
2022-12-03T04:26:14.172Z,73.9
2022-12-03T04:27:31.222Z,74
2022-12-03T04:28:48.224Z,74.1
2022-12-03T04:30:05.290Z,74.1
2022-12-03T04:31:22.269Z,74.2
2022-12-03T04:32:39.189Z,74.3
2022-12-03T04:33:56.216Z,74.5
2022-12-03T04:35:13.296Z,74.6
2022-12-03T04:36:30.206Z,74.4
2022-12-03T04:37:47.241Z,74.2
2022-12-03T04:39:04.216Z,73.7
2022-12-03T04:40:21.194Z,73.6
2022-12-03T04:41:38.548Z,73.3
2022-12-03T04:42:55.238Z,73.3
2022-12-03T04:44:12.265Z,73.3
2022-12-03T04:45:29.198Z,73.5
2022-12-03T04:46:46.184Z,73.9
2022-12-03T04:48:03.221Z,74.2
2022-12-03T04:49:20.357Z,74.8
2022-12-03T04:50:37.198Z,75.1
2022-12-03T04:51:54.202Z,75.1
2022-12-03T04:53:11.208Z,75.2
2022-12-03T04:54:28.286Z,75.1
2022-12-03T04:55:45.238Z,74.9
2022-12-03T04:57:02.225Z,74.8
2022-12-03T04:58:19.203Z,74.6
2022-12-03T04:59:36.274Z,74.6
2022-12-03T05:00:53.254Z,74.7
2022-12-03T05:02:10.278Z,75.3
2022-12-03T05:03:27.208Z,76
2022-12-03T05:04:44.244Z,76.6
2022-12-03T05:06:01.299Z,77
2022-12-03T05:07:18.248Z,77.2
2022-12-03T05:08:35.228Z,77.6
2022-12-03T05:09:52.279Z,77.9
2022-12-03T05:11:09.244Z,77.7
2022-12-03T05:12:26.228Z,77.7
2022-12-03T05:13:43.366Z,77.7
2022-12-03T05:15:00.466Z,77.4
2022-12-03T05:16:17.297Z,77
2022-12-03T05:17:34.235Z,76.5
2022-12-03T05:18:51.255Z,76.2
2022-12-03T05:20:08.412Z,75.9
2022-12-03T05:21:25.260Z,75.8
2022-12-03T05:22:42.245Z,75.6
2022-12-03T05:23:59.290Z,75.7
2022-12-03T05:25:16.303Z,75.8
2022-12-03T05:26:33.246Z,75.7
2022-12-03T05:27:50.259Z,75.7
2022-12-03T05:29:07.245Z,75.7
2022-12-03T05:30:24.368Z,75.4
2022-12-03T05:31:41.288Z,75.1
2022-12-03T05:32:58.255Z,75
2022-12-03T05:34:15.254Z,74.9
2022-12-03T05:35:32.305Z,74.8
2022-12-03T05:36:49.264Z,74.6
2022-12-03T05:38:06.296Z,74
2022-12-03T05:39:23.296Z,73.5
2022-12-03T05:40:40.340Z,73.4
2022-12-03T05:41:57.304Z,73
2022-12-03T05:43:14.491Z,72.8
2022-12-03T05:44:31.258Z,72.5
2022-12-03T05:45:48.375Z,72.7
2022-12-03T05:47:05.324Z,72.8
2022-12-03T05:48:22.289Z,73
2022-12-03T05:49:39.316Z,73.1
2022-12-03T05:50:56.275Z,73.1
2022-12-03T05:52:13.282Z,73.3
2022-12-03T05:53:30.292Z,73.5
2022-12-03T05:54:47.451Z,73.8
2022-12-03T05:56:04.338Z,74.3
2022-12-03T05:57:21.275Z,74.6
2022-12-03T05:58:38.318Z,74.8
2022-12-03T05:59:55.344Z,74.7
2022-12-03T06:01:12.292Z,74.8
2022-12-03T06:02:29.478Z,74.7
2022-12-03T06:03:46.426Z,74.6
2022-12-03T06:05:03.342Z,74.5
2022-12-03T06:06:20.311Z,75
2022-12-03T06:07:37.361Z,75.4
2022-12-03T06:08:54.320Z,75.8
2022-12-03T06:10:11.353Z,76.1
2022-12-03T06:11:28.317Z,76.5
2022-12-03T06:12:45.286Z,76.6
2022-12-03T06:14:02.338Z,76.2
2022-12-03T06:15:19.377Z,76
2022-12-03T06:16:36.464Z,75.8
2022-12-03T06:17:53.321Z,75.7
2022-12-03T06:19:10.322Z,75.5
2022-12-03T06:20:27.592Z,75.5
2022-12-03T06:21:44.337Z,75.4
2022-12-03T06:23:01.315Z,75.1
2022-12-03T06:24:18.340Z,74.8
2022-12-03T06:25:35.313Z,74.7
2022-12-03T06:26:52.367Z,74.6
2022-12-03T06:28:09.370Z,74.4
2022-12-03T06:29:26.979Z,74.3
2022-12-03T06:30:44.395Z,74.5
2022-12-03T06:32:01.369Z,74.5
2022-12-03T06:33:18.332Z,74.5
2022-12-03T06:34:35.348Z,74.5
2022-12-03T06:35:52.352Z,74.4
2022-12-03T06:37:09.421Z,74.5
2022-12-03T06:38:26.347Z,74.8
2022-12-03T06:39:43.344Z,75
2022-12-03T06:41:00.332Z,74.9
2022-12-03T06:42:17.506Z,74.8
2022-12-03T06:43:34.329Z,74.8
2022-12-03T06:44:51.659Z,74.7
2022-12-03T06:46:08.443Z,74.7
2022-12-03T06:47:25.836Z,74.7
2022-12-03T06:48:42.471Z,74.6
2022-12-03T06:49:59.360Z,74.6
2022-12-03T06:51:16.404Z,74.2
2022-12-03T06:52:33.427Z,74
2022-12-03T06:53:50.390Z,73.9
2022-12-03T06:55:07.373Z,73.8
2022-12-03T06:56:25.114Z,74.4
2022-12-03T06:57:41.434Z,75.3
2022-12-03T06:58:58.403Z,76.1
2022-12-03T07:00:15.368Z,76.7
2022-12-03T07:01:32.610Z,76.9
2022-12-03T07:02:49.414Z,77.2
2022-12-03T07:04:06.409Z,77.9
2022-12-03T07:05:23.454Z,78.3
2022-12-03T07:06:40.395Z,78.6
2022-12-03T07:07:57.405Z,78.8
2022-12-03T07:09:14.377Z,78.7
2022-12-03T07:10:31.440Z,78.4
2022-12-03T07:11:48.397Z,78
2022-12-03T07:13:05.414Z,77.4
2022-12-03T07:14:22.372Z,76.8
2022-12-03T07:15:39.394Z,76.8
2022-12-03T07:16:56.401Z,76.3
2022-12-03T07:18:13.390Z,76.3
2022-12-03T07:19:32.697Z,76.4
2022-12-03T07:20:47.372Z,76.2
2022-12-03T07:22:04.422Z,75.8
2022-12-03T07:23:21.394Z,75.4
2022-12-03T07:24:38.412Z,75.1
2022-12-03T07:25:55.440Z,75.1
2022-12-03T07:27:12.677Z,75.3
2022-12-03T07:28:29.446Z,75.8
2022-12-03T07:29:46.390Z,75.8
2022-12-03T07:31:03.479Z,76.4
2022-12-03T07:32:20.446Z,76.6
2022-12-03T07:33:37.435Z,76.9
2022-12-03T07:34:54.766Z,77
2022-12-03T07:36:11.593Z,77
2022-12-03T07:37:28.443Z,77.1
2022-12-03T07:38:45.454Z,76.8
2022-12-03T07:40:02.684Z,76.8
2022-12-03T07:41:19.399Z,77.2
2022-12-03T07:42:36.417Z,77.6
2022-12-03T07:43:53.501Z,77.8
2022-12-03T07:45:10.621Z,77.8
2022-12-03T07:46:27.470Z,78.1
2022-12-03T07:47:44.441Z,78.3
2022-12-03T07:49:01.446Z,78.3
2022-12-03T07:50:18.432Z,78.3
2022-12-03T07:51:36.659Z,78.3
2022-12-03T07:52:53.456Z,78.4
2022-12-03T07:54:10.492Z,79
2022-12-03T07:55:27.440Z,79.1
2022-12-03T07:56:44.432Z,79.3
2022-12-03T07:58:01.443Z,79.1
2022-12-03T07:59:18.646Z,78.8
2022-12-03T08:00:35.562Z,78.6
2022-12-03T08:01:52.587Z,78.3
2022-12-03T08:03:09.501Z,78.3
2022-12-03T08:04:26.532Z,78.4
2022-12-03T08:05:43.481Z,78.1
2022-12-03T08:07:00.452Z,77.3
2022-12-03T08:08:17.558Z,76.9
2022-12-03T08:09:34.485Z,76.6
2022-12-03T08:10:51.436Z,76.6
2022-12-03T08:12:08.456Z,76.5
2022-12-03T08:13:25.462Z,76.4
2022-12-03T08:14:42.511Z,76.8
2022-12-03T08:15:59.519Z,77.1
2022-12-03T08:17:16.446Z,77.2
2022-12-03T08:18:33.514Z,77.2
2022-12-03T08:19:50.452Z,77.2
2022-12-03T08:21:07.497Z,77.3
2022-12-03T08:22:24.515Z,77.3
2022-12-03T08:23:41.535Z,77.1
2022-12-03T08:24:58.503Z,77.2
2022-12-03T08:26:15.473Z,77.4
2022-12-03T08:27:32.475Z,77.4
2022-12-03T08:28:49.516Z,77.5
2022-12-03T08:30:06.607Z,77.4
2022-12-03T08:31:26.798Z,77.6
2022-12-03T08:32:40.601Z,77.4
2022-12-03T08:33:57.465Z,77.3
2022-12-03T08:35:14.518Z,77.2
2022-12-03T08:36:31.488Z,77.2
2022-12-03T08:37:48.545Z,77.6
2022-12-03T08:39:05.501Z,77.8
2022-12-03T08:40:22.479Z,77.8
2022-12-03T08:41:39.587Z,77.8
2022-12-03T08:42:56.492Z,77.7
2022-12-03T08:44:13.814Z,77.5
2022-12-03T08:45:30.608Z,77.5
2022-12-03T08:46:47.477Z,77.4
2022-12-03T08:48:04.494Z,77.4
2022-12-03T08:49:21.565Z,77.1
2022-12-03T08:50:38.486Z,77.2
2022-12-03T08:51:55.500Z,76.9
2022-12-03T08:53:12.504Z,76.7
2022-12-03T08:54:29.519Z,76.5
2022-12-03T08:55:46.514Z,76.7
2022-12-03T08:57:03.505Z,77
2022-12-03T08:58:20.539Z,77.1
2022-12-03T08:59:39.387Z,77.5
2022-12-03T09:00:54.611Z,77.4
2022-12-03T09:02:11.551Z,77.4
2022-12-03T09:03:28.864Z,77.7
2022-12-03T09:04:45.530Z,77.7
2022-12-03T09:06:02.569Z,77.5
2022-12-03T09:07:19.550Z,76.8
2022-12-03T09:08:36.578Z,76.2
2022-12-03T09:09:53.559Z,75.9
2022-12-03T09:11:11.216Z,75.4
2022-12-03T09:12:28.596Z,74.8
2022-12-03T09:13:45.515Z,74.8
2022-12-03T09:15:03.078Z,74.7
2022-12-03T09:16:19.772Z,74.6
2022-12-03T09:17:36.571Z,74.7
2022-12-03T09:18:53.687Z,75.1
2022-12-03T09:20:10.516Z,75.2
2022-12-03T09:21:27.536Z,74.9
2022-12-03T09:22:44.613Z,74.7
2022-12-03T09:24:01.982Z,74.5
2022-12-03T09:25:18.547Z,74.5
2022-12-03T09:26:35.616Z,74.7
2022-12-03T09:27:52.727Z,74.9
2022-12-03T09:29:12.248Z,74.5
2022-12-03T09:30:26.561Z,74.1
2022-12-03T09:31:44.085Z,73.9
2022-12-03T09:33:00.595Z,73.6
2022-12-03T09:34:17.538Z,73.7
2022-12-03T09:35:34.600Z,74
2022-12-03T09:36:51.588Z,74.9
2022-12-03T09:38:08.551Z,75.3
2022-12-03T09:39:25.601Z,75.9
2022-12-03T09:40:42.645Z,76.2
2022-12-03T09:41:59.559Z,76.5
2022-12-03T09:43:16.561Z,76.7
2022-12-03T09:44:33.556Z,76.6
2022-12-03T09:45:51.456Z,76.2
2022-12-03T09:47:08.887Z,76.2
2022-12-03T09:48:25.604Z,76.5
2022-12-03T09:49:42.566Z,76.7
2022-12-03T09:50:59.684Z,76.4
2022-12-03T09:52:16.596Z,76.2
2022-12-03T09:53:36.734Z,76.3
2022-12-03T09:54:50.611Z,76.1
2022-12-03T09:56:07.606Z,76
2022-12-03T09:57:24.567Z,76.1
2022-12-03T09:58:41.629Z,76
2022-12-03T09:59:58.591Z,76
2022-12-03T10:01:15.833Z,75.8
2022-12-03T10:02:32.892Z,75.6
2022-12-03T10:03:49.584Z,75.5
2022-12-03T10:05:06.713Z,75.6
2022-12-03T10:06:23.659Z,75.2
2022-12-03T10:07:40.690Z,74.6
2022-12-03T10:08:57.598Z,74.1
2022-12-03T10:10:14.578Z,73.9
2022-12-03T10:11:31.608Z,74
2022-12-03T10:12:48.741Z,74
2022-12-03T10:16:28.878Z,74.3
2022-12-03T10:17:45.660Z,74.8
2022-12-03T10:19:02.803Z,75.2
2022-12-03T10:20:19.681Z,75.8
2022-12-03T10:21:36.604Z,76.3
2022-12-03T10:22:53.684Z,76.5
2022-12-03T10:24:10.852Z,76.8
2022-12-03T10:25:27.654Z,76.8
2022-12-03T10:26:44.963Z,76.6
2022-12-03T10:31:45.671Z,76.2
2022-12-03T10:33:02.876Z,75.7
2022-12-03T10:34:19.621Z,75.2
2022-12-03T10:35:36.622Z,74.7
2022-12-03T10:36:53.659Z,73.9
2022-12-03T10:38:10.648Z,73.3
2022-12-03T10:39:27.723Z,73.4
2022-12-03T10:40:44.748Z,74
2022-12-03T10:42:01.679Z,74.5
2022-12-03T10:43:18.669Z,75
2022-12-03T10:44:35.659Z,75
2022-12-03T10:45:52.761Z,74.6
2022-12-03T10:47:09.831Z,74.4
2022-12-03T10:48:26.880Z,74
2022-12-03T10:49:43.647Z,73.6
2022-12-03T10:51:00.666Z,73.4
2022-12-03T10:52:21.277Z,73.1
2022-12-03T10:53:34.730Z,73
2022-12-03T10:54:52.136Z,72.9
2022-12-03T10:56:08.698Z,72.5
2022-12-03T10:57:25.687Z,72.4
2022-12-03T10:58:42.663Z,72.4
2022-12-03T10:59:59.698Z,72.6
2022-12-03T11:01:16.959Z,72.6
2022-12-03T11:02:33.669Z,73
2022-12-03T11:03:50.809Z,73.1
2022-12-03T11:05:07.706Z,72.8
2022-12-03T11:06:24.652Z,73.2
2022-12-03T11:07:41.777Z,72.7
2022-12-03T11:09:01.494Z,72.2
2022-12-03T11:10:15.805Z,72.1
2022-12-03T11:11:32.692Z,72.4
2022-12-03T11:12:49.716Z,72.4
2022-12-03T11:14:06.700Z,72.5
2022-12-03T11:19:18.756Z,75.2
2022-12-03T11:20:35.681Z,75.9
2022-12-03T11:21:52.700Z,76.3
2022-12-03T11:23:09.684Z,76.4
2022-12-03T11:24:26.761Z,76.6
2022-12-03T11:25:43.700Z,76.2
2022-12-03T11:27:00.688Z,75.4
2022-12-03T11:28:17.701Z,74.6
2022-12-03T11:29:34.716Z,73.5
2022-12-03T11:30:51.803Z,72.9
2022-12-03T11:32:08.717Z,72.6
2022-12-03T11:33:25.768Z,72.3
2022-12-03T11:34:42.730Z,72.5
2022-12-03T11:35:59.948Z,72.3
2022-12-03T11:37:16.724Z,72.4
2022-12-03T11:38:33.773Z,72.3
2022-12-03T11:39:50.946Z,72.4
2022-12-03T11:41:07.707Z,72.5
2022-12-03T11:42:24.695Z,72.2
2022-12-03T11:43:41.911Z,72
2022-12-03T11:44:58.757Z,72.1
2022-12-03T11:46:15.933Z,72.2
2022-12-03T11:47:32.723Z,72.3
2022-12-03T11:48:49.773Z,72
2022-12-03T11:50:06.784Z,71.9
2022-12-03T11:51:23.723Z,71.5
2022-12-03T11:52:40.709Z,71.8
2022-12-03T11:53:57.728Z,72.2
2022-12-03T11:55:14.760Z,72.2
2022-12-03T11:56:31.753Z,72
2022-12-03T11:57:48.811Z,72.1
2022-12-03T11:59:06.105Z,71.9
2022-12-03T12:00:22.791Z,72.1
2022-12-03T12:01:39.750Z,72.3
2022-12-03T12:02:56.829Z,72.4
2022-12-03T12:04:14.024Z,72.4
2022-12-03T12:05:30.855Z,72.5
2022-12-03T12:06:53.081Z,72.8
2022-12-03T12:08:04.826Z,73
2022-12-03T12:09:21.766Z,73.2
2022-12-03T12:10:38.726Z,73.6
2022-12-03T12:11:55.754Z,73.7
2022-12-03T12:13:12.772Z,73.4
2022-12-03T12:14:29.799Z,73.2
2022-12-03T12:15:46.884Z,73.1
2022-12-03T12:17:03.763Z,72.6
2022-12-03T12:18:20.848Z,72.4
2022-12-03T12:19:37.845Z,72.7
2022-12-03T12:20:54.800Z,73.4
2022-12-03T12:22:11.813Z,73.9
2022-12-03T12:23:28.808Z,73.8
2022-12-03T12:24:46.167Z,74.2
2022-12-03T12:26:02.968Z,74.4
2022-12-03T12:27:19.771Z,74.4
2022-12-03T12:28:36.753Z,74.1
2022-12-03T12:29:54.311Z,73.9
2022-12-03T12:31:10.872Z,73.3
2022-12-03T12:32:27.778Z,72.7
2022-12-03T12:33:44.764Z,71.9
2022-12-03T12:35:01.820Z,71.2
2022-12-03T12:36:18.852Z,70.9
2022-12-03T12:37:35.786Z,71.3
2022-12-03T12:38:52.798Z,71.7
2022-12-03T12:40:10.485Z,72.2
2022-12-03T12:41:27.824Z,72.8
2022-12-03T12:42:44.806Z,72.7
2022-12-03T12:44:01.787Z,72.7
2022-12-03T12:45:18.826Z,72.7
2022-12-03T12:46:51.187Z,72.3
2022-12-03T12:47:52.866Z,71.9
2022-12-03T12:49:10.168Z,71.7
2022-12-03T12:50:26.805Z,71.9
2022-12-03T12:51:43.842Z,72.5
2022-12-03T12:53:00.826Z,72.7
2022-12-03T12:54:17.798Z,73
2022-12-03T12:55:34.778Z,73.1
2022-12-03T12:56:51.844Z,73.3
2022-12-03T12:58:08.829Z,73.3
2022-12-03T12:59:25.807Z,73.1
2022-12-03T13:00:42.877Z,72.2
2022-12-03T13:02:00.024Z,72.1
2022-12-03T13:03:16.889Z,72
2022-12-03T13:04:33.804Z,71.6
2022-12-03T13:05:50.890Z,71.6
2022-12-03T13:07:07.858Z,71.7
2022-12-03T13:08:24.873Z,71.6
2022-12-03T13:09:41.817Z,71.4
2022-12-03T13:10:58.846Z,71.5
2022-12-03T13:12:15.853Z,71.7
2022-12-03T13:13:33.061Z,71.4
2022-12-03T13:14:49.964Z,71.5
2022-12-03T13:16:07.010Z,71.5
2022-12-03T13:17:23.935Z,71.2
2022-12-03T13:22:47.769Z,71.4
2022-12-03T13:24:04.847Z,71
2022-12-03T13:25:38.201Z,70.9
2022-12-03T13:26:39.580Z,71.2
2022-12-03T13:27:55.837Z,71.4
2022-12-03T13:29:12.845Z,72
2022-12-03T13:30:29.970Z,72.2
2022-12-03T13:31:47.063Z,72.3
2022-12-03T13:33:04.055Z,72.6
2022-12-03T13:34:20.905Z,72.6
2022-12-03T13:35:37.951Z,72.4
2022-12-03T13:36:57.866Z,72.1
2022-12-03T13:38:11.921Z,71.9
2022-12-03T13:39:28.870Z,71.5
2022-12-03T13:40:45.883Z,71.9
2022-12-03T13:42:03.034Z,72.1
2022-12-03T13:43:19.879Z,72
2022-12-03T13:44:36.854Z,71.9
2022-12-03T13:45:53.919Z,71.8
2022-12-03T13:47:10.906Z,71.8
2022-12-03T13:48:27.903Z,72.1
2022-12-03T13:49:44.886Z,72.5
2022-12-03T13:51:01.867Z,72.7
2022-12-03T13:52:18.886Z,72.6
2022-12-03T13:53:35.928Z,72.2
2022-12-03T13:54:52.872Z,72
2022-12-03T13:56:09.936Z,72
2022-12-03T13:57:26.882Z,71.8
2022-12-03T13:58:43.916Z,71.9
2022-12-03T14:00:00.874Z,71.9
2022-12-03T14:01:17.989Z,71.4
2022-12-03T14:02:34.927Z,71.3
2022-12-03T14:03:52.098Z,70.7
2022-12-03T14:05:08.882Z,70.7
2022-12-03T14:06:25.873Z,70.7
2022-12-03T14:07:42.948Z,70.7
2022-12-03T14:08:59.930Z,70.6
2022-12-03T14:10:17.434Z,70.8
2022-12-03T14:11:33.908Z,71
2022-12-03T14:12:51.540Z,71.3
2022-12-03T14:14:08.925Z,71.5
2022-12-03T14:15:25.918Z,71.5
2022-12-03T14:16:43.002Z,71.6
2022-12-03T14:17:59.945Z,71.4
2022-12-03T14:19:16.927Z,71.4
2022-12-03T14:20:33.917Z,71.8
2022-12-03T14:21:50.989Z,72.1
2022-12-03T14:23:07.895Z,72.4
2022-12-03T14:24:24.937Z,72.5
2022-12-03T14:25:41.927Z,72.8
2022-12-03T14:26:58.944Z,73.1
2022-12-03T14:28:15.989Z,73.7
2022-12-03T14:29:32.906Z,74.1
2022-12-03T14:30:50.007Z,74.8
2022-12-03T14:32:07.068Z,75.2
2022-12-03T14:33:24.035Z,75.4
2022-12-03T14:34:40.963Z,75.5
2022-12-03T14:35:57.971Z,75.5
2022-12-03T14:37:14.952Z,75.2
2022-12-03T14:38:32.072Z,74.7
2022-12-03T14:39:49.019Z,74.2
2022-12-03T14:41:05.947Z,73.8
2022-12-03T14:42:23.604Z,73.6
2022-12-03T14:47:13.024Z,73.8
2022-12-03T14:48:30.353Z,74.3
2022-12-03T14:49:46.969Z,74.6
2022-12-03T14:51:04.116Z,74.8
2022-12-03T14:52:20.979Z,74.8
2022-12-03T14:53:39.042Z,74.8
2022-12-03T14:54:56.043Z,74.7
2022-12-03T14:56:12.984Z,74.7
2022-12-03T14:57:29.991Z,74.7
2022-12-03T14:58:47.033Z,74.7
2022-12-03T15:00:04.066Z,74.9
2022-12-03T15:01:21.097Z,75.1
2022-12-03T15:02:38.062Z,74.9
2022-12-03T15:03:54.990Z,74.5
2022-12-03T15:05:11.987Z,74.5
2022-12-03T15:06:29.000Z,74.3
2022-12-03T15:07:46.051Z,74.1
2022-12-03T15:09:03.058Z,73.9
2022-12-03T15:10:20.361Z,73.9
2022-12-03T15:11:41.439Z,73.9
2022-12-03T15:12:55.005Z,73.8
2022-12-03T15:14:12.028Z,74
2022-12-03T15:15:29.007Z,74
2022-12-03T15:16:46.123Z,74
2022-12-03T15:18:03.070Z,73.7
2022-12-03T15:19:20.006Z,74.1
2022-12-03T15:20:37.038Z,74.2
2022-12-03T15:21:53.980Z,74.3
2022-12-03T15:23:14.161Z,74.7
2022-12-03T15:24:28.057Z,75.1
2022-12-03T15:25:45.005Z,75.3
2022-12-03T15:27:02.015Z,75.5
2022-12-03T15:28:19.016Z,75.4
2022-12-03T15:29:36.005Z,75.1
2022-12-03T15:30:53.084Z,74.8
2022-12-03T15:32:10.726Z,74.7
2022-12-03T15:33:28.127Z,74.5
2022-12-03T15:34:45.082Z,74.4
2022-12-03T15:36:02.029Z,74.3
2022-12-03T15:37:19.006Z,74.1
2022-12-03T15:38:36.008Z,73.8
2022-12-03T15:39:53.219Z,73.7
2022-12-03T15:41:10.086Z,73.9
2022-12-03T15:42:27.792Z,73.9
2022-12-03T15:43:44.994Z,73.8
2022-12-03T15:45:02.073Z,73.9
2022-12-03T15:46:19.094Z,74.1
2022-12-03T15:47:36.492Z,74.3
2022-12-03T15:48:54.547Z,74.3
2022-12-03T15:50:11.168Z,74.2
2022-12-03T15:51:28.083Z,74.3
2022-12-03T15:52:45.026Z,74.6
2022-12-03T15:54:02.060Z,74.9
2022-12-03T15:55:19.095Z,74.9
2022-12-03T15:56:36.287Z,75.2
2022-12-03T15:57:53.095Z,75.4
2022-12-03T15:59:10.227Z,75.6
2022-12-03T16:00:27.100Z,75.4
2022-12-03T16:04:02.941Z,75.3
2022-12-03T16:05:20.142Z,75.7
2022-12-03T16:06:37.094Z,76.4
2022-12-03T16:07:54.428Z,76.6
2022-12-03T16:09:11.105Z,76.8
2022-12-03T16:10:28.787Z,76.8
2022-12-03T16:11:46.083Z,76.7
2022-12-03T16:13:03.098Z,76.5
2022-12-03T16:14:20.068Z,76.3
2022-12-03T16:15:37.179Z,75.8
2022-12-03T16:16:54.042Z,75.7
2022-12-03T16:18:11.068Z,75.9
2022-12-03T16:19:28.062Z,75.6
2022-12-03T16:20:45.096Z,75.1
2022-12-03T16:22:02.104Z,74.7
2022-12-03T16:23:19.088Z,74.4
2022-12-03T16:24:36.332Z,74
2022-12-03T16:25:53.093Z,73
2022-12-03T16:27:10.126Z,72.5
2022-12-03T16:28:27.054Z,72.2
2022-12-03T16:29:44.066Z,72.2
2022-12-03T16:31:01.284Z,72.2
2022-12-03T16:32:18.102Z,72.2
2022-12-03T16:37:18.112Z,72.2
2022-12-03T16:38:35.127Z,72.4
2022-12-03T16:39:52.392Z,73
2022-12-03T16:41:09.167Z,73.5
2022-12-03T16:42:26.105Z,73.7
2022-12-03T16:43:43.086Z,73.9
2022-12-03T16:45:00.091Z,73.9
2022-12-03T16:46:17.268Z,73.9
2022-12-03T16:47:34.580Z,74.1
2022-12-03T16:48:51.459Z,74.3
2022-12-03T16:50:09.839Z,74.2
2022-12-03T16:51:25.140Z,74.2
2022-12-03T16:52:42.118Z,74.2
2022-12-03T16:53:59.204Z,74.6
2022-12-03T16:55:16.113Z,74.9
2022-12-03T16:56:33.135Z,75.1
2022-12-03T16:57:50.124Z,75.2
2022-12-03T16:59:07.185Z,75.1
2022-12-03T17:00:24.148Z,75
2022-12-03T17:01:41.186Z,74.5
2022-12-03T17:02:58.193Z,74.2
2022-12-03T17:04:15.559Z,74
2022-12-03T17:05:32.131Z,74
2022-12-03T17:06:49.175Z,73.9
2022-12-03T17:08:06.210Z,73.9
2022-12-03T17:09:23.218Z,73.7
2022-12-03T17:10:40.200Z,73.5
2022-12-03T17:11:57.186Z,73.2
2022-12-03T17:13:14.175Z,73.1
2022-12-03T17:14:33.350Z,72.6
2022-12-03T17:15:48.236Z,72.4
2022-12-03T17:17:05.173Z,72.5
2022-12-03T17:18:22.219Z,72.6
2022-12-03T17:19:39.155Z,72.8
2022-12-03T17:20:56.188Z,72.8
2022-12-03T17:22:13.189Z,72.7
2022-12-03T17:23:30.155Z,72.6
2022-12-03T17:24:47.139Z,72.7
2022-12-03T17:26:04.182Z,72.6
2022-12-03T17:27:21.190Z,72.6
2022-12-03T17:28:38.311Z,72.6
2022-12-03T17:29:55.540Z,72.3
2022-12-03T17:31:12.225Z,72.6
2022-12-03T17:32:29.174Z,73.1
2022-12-03T17:33:46.187Z,73.3
2022-12-03T17:35:03.184Z,73.6